sensor_id;sensor_type;location;lat;lon;timestamp;pressure;altitude;pressure_sealevel;temperature;humidity
65557;BME280;52200;53.490;14.376;2023-12-20T00:01:18;100607.00;;;6.77;100.00
65557;BME280;52200;53.490;14.376;2023-12-20T00:03:43;100607.28;;;6.54;100.00
65557;BME280;52200;53.490;14.376;2023-12-20T00:06:09;100597.19;;;6.54;100.00
65557;BME280;52200;53.490;14.376;2023-12-20T00:08:34;100592.06;;;6.59;100.00
65557;BME280;52200;53.490;14.376;2023-12-20T00:11:00;100592.75;;;6.73;100.00
65557;BME280;52200;53.490;14.376;2023-12-20T00:13:25;100595.53;;;6.52;100.00
65557;BME280;52200;53.490;14.376;2023-12-20T00:15:51;100597.19;;;6.54;100.00
65557;BME280;52200;53.490;14.376;2023-12-20T00:18:16;100598.81;;;6.58;100.00
65557;BME280;52200;53.490;14.376;2023-12-20T00:20:42;100594.69;;;6.50;100.00
65557;BME280;52200;53.490;14.376;2023-12-20T00:23:07;100579.59;;;6.48;100.00
65557;BME280;52200;53.490;14.376;2023-12-20T00:25:33;100591.38;;;6.48;100.00
65557;BME280;52200;53.490;14.376;2023-12-20T00:28:00;100586.28;;;6.51;100.00
65557;BME280;52200;53.490;14.376;2023-12-20T00:30:25;100579.63;;;6.47;100.00
65557;BME280;52200;53.490;14.376;2023-12-20T00:32:51;100566.28;;;6.37;100.00
65557;BME280;52200;53.490;14.376;2023-12-20T00:35:16;100581.53;;;6.26;100.00
65557;BME280;52200;53.490;14.376;2023-12-20T00:37:43;100582.41;;;6.22;100.00
65557;BME280;52200;53.490;14.376;2023-12-20T00:40:09;100583.22;;;6.25;100.00
65557;BME280;52200;53.490;14.376;2023-12-20T00:42:34;100578.41;;;6.05;100.00
65557;BME280;52200;53.490;14.376;2023-12-20T00:45:00;100579.16;;;6.12;100.00
65557;BME280;52200;53.490;14.376;2023-12-20T00:47:26;100589.38;;;6.00;100.00
65557;BME280;52200;53.490;14.376;2023-12-20T00:49:52;100578.41;;;6.02;100.00
65557;BME280;52200;53.490;14.376;2023-12-20T00:52:18;100573.66;;;5.71;100.00
65557;BME280;52200;53.490;14.376;2023-12-20T00:54:44;100583.72;;;5.74;100.00
65557;BME280;52200;53.490;14.376;2023-12-20T00:57:10;100585.28;;;5.81;100.00
65557;BME280;52200;53.490;14.376;2023-12-20T00:59:35;100582.00;;;5.76;100.00
65557;BME280;52200;53.490;14.376;2023-12-20T01:02:01;100590.44;;;5.69;100.00
65557;BME280;52200;53.490;14.376;2023-12-20T01:04:26;100585.34;;;5.75;100.00
65557;BME280;52200;53.490;14.376;2023-12-20T01:06:52;100584.50;;;5.76;100.00
65557;BME280;52200;53.490;14.376;2023-12-20T01:09:18;100581.13;;;5.79;100.00
65557;BME280;52200;53.490;14.376;2023-12-20T01:11:44;100581.22;;;5.70;100.00
65557;BME280;52200;53.490;14.376;2023-12-20T01:14:09;100579.69;;;5.55;100.00
65557;BME280;52200;53.490;14.376;2023-12-20T01:16:35;100585.50;;;5.61;100.00
65557;BME280;52200;53.490;14.376;2023-12-20T01:19:00;100591.31;;;5.68;100.00
65557;BME280;52200;53.490;14.376;2023-12-20T01:21:26;100585.47;;;5.63;100.00
65557;BME280;52200;53.490;14.376;2023-12-20T01:23:51;100577.06;;;5.64;100.00
65557;BME280;52200;53.490;14.376;2023-12-20T01:26:16;100576.22;;;5.65;100.00
65557;BME280;52200;53.490;14.376;2023-12-20T01:28:42;100585.41;;;5.72;100.00
65557;BME280;52200;53.490;14.376;2023-12-20T01:31:08;100579.47;;;5.78;100.00
65557;BME280;52200;53.490;14.376;2023-12-20T01:33:34;100581.94;;;5.82;100.00
65557;BME280;52200;53.490;14.376;2023-12-20T01:35:59;100588.75;;;5.71;100.00
65557;BME280;52200;53.490;14.376;2023-12-20T01:38:25;100580.44;;;5.61;100.00
65557;BME280;52200;53.490;14.376;2023-12-20T01:40:50;100580.31;;;5.75;100.00
65557;BME280;52200;53.490;14.376;2023-12-20T01:43:16;100577.25;;;5.42;100.00
65557;BME280;52200;53.490;14.376;2023-12-20T01:45:41;100579.72;;;5.50;100.00
65557;BME280;52200;53.490;14.376;2023-12-20T01:48:08;100583.88;;;5.54;100.00
65557;BME280;52200;53.490;14.376;2023-12-20T01:50:36;100584.78;;;5.45;100.00
65557;BME280;52200;53.490;14.376;2023-12-20T01:53:02;100589.88;;;5.41;100.00
65557;BME280;52200;53.490;14.376;2023-12-20T01:55:31;100578.91;;;5.45;100.00
65557;BME280;52200;53.490;14.376;2023-12-20T01:57:59;100584.00;;;5.37;100.00
65557;BME280;52200;53.490;14.376;2023-12-20T02:00:25;100579.56;;;5.69;100.00
65557;BME280;52200;53.490;14.376;2023-12-20T02:02:53;100582.09;;;5.67;99.81
65557;BME280;52200;53.490;14.376;2023-12-20T02:05:21;100579.72;;;5.48;99.71
65557;BME280;52200;53.490;14.376;2023-12-20T02:07:47;100583.16;;;5.40;100.00
65557;BME280;52200;53.490;14.376;2023-12-20T02:10:12;100577.34;;;5.27;100.00
65557;BME280;52200;53.490;14.376;2023-12-20T02:12:38;100582.44;;;5.21;100.00
65557;BME280;52200;53.490;14.376;2023-12-20T02:15:04;100571.56;;;5.15;100.00
65557;BME280;52200;53.490;14.376;2023-12-20T02:17:31;100574.09;;;5.15;100.00
65557;BME280;52200;53.490;14.376;2023-12-20T02:19:57;100566.66;;;4.97;100.00
65557;BME280;52200;53.490;14.376;2023-12-20T02:22:22;100565.88;;;4.82;100.00
65557;BME280;52200;53.490;14.376;2023-12-20T02:24:48;100569.13;;;5.03;100.00
65557;BME280;52200;53.490;14.376;2023-12-20T02:27:15;100565.00;;;4.94;100.00
65557;BME280;52200;53.490;14.376;2023-12-20T02:29:42;100568.41;;;4.86;100.00
65557;BME280;52200;53.490;14.376;2023-12-20T02:32:08;100569.16;;;4.97;100.00
65557;BME280;52200;53.490;14.376;2023-12-20T02:34:33;100560.88;;;4.79;100.00
65557;BME280;52200;53.490;14.376;2023-12-20T02:36:58;100558.25;;;4.95;100.00
65557;BME280;52200;53.490;14.376;2023-12-20T02:39:24;100557.53;;;4.80;100.00
65557;BME280;52200;53.490;14.376;2023-12-20T02:41:49;100554.94;;;4.93;100.00
65557;BME280;52200;53.490;14.376;2023-12-20T02:44:15;100554.03;;;4.98;100.00
65557;BME280;52200;53.490;14.376;2023-12-20T02:46:40;100561.66;;;4.94;100.00
65557;BME280;52200;53.490;14.376;2023-12-20T02:49:06;100560.78;;;4.98;100.00
65557;BME280;52200;53.490;14.376;2023-12-20T02:51:31;100563.34;;;4.87;100.00
65557;BME280;52200;53.490;14.376;2023-12-20T02:53:57;100552.50;;;4.80;100.00
65557;BME280;52200;53.490;14.376;2023-12-20T02:56:22;100554.91;;;4.94;100.00
65557;BME280;52200;53.490;14.376;2023-12-20T02:58:48;100559.06;;;5.02;100.00
65557;BME280;52200;53.490;14.376;2023-12-20T03:01:13;100560.84;;;4.82;100.00
65557;BME280;52200;53.490;14.376;2023-12-20T03:03:39;100559.91;;;4.97;100.00
65557;BME280;52200;53.490;14.376;2023-12-20T03:06:04;100554.88;;;5.00;99.90
65557;BME280;52200;53.490;14.376;2023-12-20T03:08:30;100559.13;;;4.92;99.97
65557;BME280;52200;53.490;14.376;2023-12-20T03:10:55;100554.88;;;4.97;99.81
65557;BME280;52200;53.490;14.376;2023-12-20T03:13:21;100549.81;;;5.02;100.00
65557;BME280;52200;53.490;14.376;2023-12-20T03:15:46;100542.38;;;4.87;99.79
65557;BME280;52200;53.490;14.376;2023-12-20T03:18:12;100550.84;;;4.78;99.83
65557;BME280;52200;53.490;14.376;2023-12-20T03:20:37;100540.78;;;4.70;100.00
65557;BME280;52200;53.490;14.376;2023-12-20T03:23:03;100534.06;;;4.75;100.00
65557;BME280;52200;53.490;14.376;2023-12-20T03:25:29;100532.31;;;4.85;100.00
65557;BME280;52200;53.490;14.376;2023-12-20T03:27:54;100532.31;;;4.87;99.97
65557;BME280;52200;53.490;14.376;2023-12-20T03:30:19;100519.72;;;4.85;99.96
65557;BME280;52200;53.490;14.376;2023-12-20T03:32:45;100529.91;;;4.70;100.00
65557;BME280;52200;53.490;14.376;2023-12-20T03:35:11;100521.47;;;4.77;100.00
65557;BME280;52200;53.490;14.376;2023-12-20T03:37:36;100521.47;;;4.78;100.00
65557;BME280;52200;53.490;14.376;2023-12-20T03:40:02;100515.69;;;4.65;100.00
65557;BME280;52200;53.490;14.376;2023-12-20T03:42:28;100516.53;;;4.64;100.00
65557;BME280;52200;53.490;14.376;2023-12-20T03:44:53;100513.22;;;4.55;100.00
65557;BME280;52200;53.490;14.376;2023-12-20T03:47:19;100510.59;;;4.70;100.00
65557;BME280;52200;53.490;14.376;2023-12-20T03:49:44;100511.56;;;4.50;100.00
65557;BME280;52200;53.490;14.376;2023-12-20T03:52:09;100512.41;;;4.46;100.00
65557;BME280;52200;53.490;14.376;2023-12-20T03:54:35;100512.41;;;4.49;100.00
65557;BME280;52200;53.490;14.376;2023-12-20T03:57:01;100509.91;;;4.43;100.00
65557;BME280;52200;53.490;14.376;2023-12-20T03:59:26;100514.94;;;4.43;100.00
65557;BME280;52200;53.490;14.376;2023-12-20T04:01:52;100508.28;;;4.33;100.00
65557;BME280;52200;53.490;14.376;2023-12-20T04:04:17;100510.00;;;4.26;100.00
65557;BME280;52200;53.490;14.376;2023-12-20T04:06:43;100512.47;;;4.37;100.00
65557;BME280;52200;53.490;14.376;2023-12-20T04:09:08;100507.38;;;4.46;100.00
65557;BME280;52200;53.490;14.376;2023-12-20T04:11:37;100499.06;;;4.35;100.00
65557;BME280;52200;53.490;14.376;2023-12-20T04:14:02;100498.13;;;4.50;100.00
65557;BME280;52200;53.490;14.376;2023-12-20T04:16:30;100496.50;;;4.41;99.93
65557;BME280;52200;53.490;14.376;2023-12-20T04:18:55;100495.75;;;4.20;100.00
65557;BME280;52200;53.490;14.376;2023-12-20T04:21:21;100495.69;;;4.33;100.00
65557;BME280;52200;53.490;14.376;2023-12-20T04:23:46;100484.03;;;4.23;100.00
65557;BME280;52200;53.490;14.376;2023-12-20T04:26:12;100482.31;;;4.28;100.00
65557;BME280;52200;53.490;14.376;2023-12-20T04:28:37;100482.34;;;4.22;100.00
65557;BME280;52200;53.490;14.376;2023-12-20T04:31:02;100470.66;;;4.14;100.00
65557;BME280;52200;53.490;14.376;2023-12-20T04:33:28;100474.06;;;4.07;100.00
65557;BME280;52200;53.490;14.376;2023-12-20T04:35:53;100474.06;;;4.07;100.00
65557;BME280;52200;53.490;14.376;2023-12-20T04:38:19;100472.41;;;4.00;100.00
65557;BME280;52200;53.490;14.376;2023-12-20T04:40:44;100470.69;;;4.10;100.00
65557;BME280;52200;53.490;14.376;2023-12-20T04:43:10;100480.72;;;4.08;100.00
65557;BME280;52200;53.490;14.376;2023-12-20T04:45:35;100474.06;;;3.95;100.00
65557;BME280;52200;53.490;14.376;2023-12-20T04:48:02;100466.56;;;3.90;100.00
65557;BME280;52200;53.490;14.376;2023-12-20T04:50:27;100465.75;;;3.77;100.00
65557;BME280;52200;53.490;14.376;2023-12-20T04:52:53;100455.69;;;3.77;100.00
65557;BME280;52200;53.490;14.376;2023-12-20T04:55:18;100455.75;;;3.63;100.00
65557;BME280;52200;53.490;14.376;2023-12-20T04:57:44;100463.28;;;3.63;100.00
65557;BME280;52200;53.490;14.376;2023-12-20T05:00:10;100464.09;;;3.64;100.00
65557;BME280;52200;53.490;14.376;2023-12-20T05:02:36;100462.44;;;3.75;100.00
65557;BME280;52200;53.490;14.376;2023-12-20T05:05:01;100458.28;;;3.57;100.00
65557;BME280;52200;53.490;14.376;2023-12-20T05:07:27;100457.38;;;3.78;100.00
65557;BME280;52200;53.490;14.376;2023-12-20T05:09:52;100460.75;;;3.65;100.00
65557;BME280;52200;53.490;14.376;2023-12-20T05:12:18;100464.09;;;3.64;100.00
65557;BME280;52200;53.490;14.376;2023-12-20T05:14:44;100468.31;;;3.57;100.00
65557;BME280;52200;53.490;14.376;2023-12-20T05:17:09;100470.00;;;3.57;100.00
65557;BME280;52200;53.490;14.376;2023-12-20T05:19:35;100471.66;;;3.51;100.00
65557;BME280;52200;53.490;14.376;2023-12-20T05:22:01;100475.84;;;3.59;100.00
65557;BME280;52200;53.490;14.376;2023-12-20T05:24:27;100479.19;;;3.58;100.00
65557;BME280;52200;53.490;14.376;2023-12-20T05:26:53;100474.19;;;3.65;100.00
65557;BME280;52200;53.490;14.376;2023-12-20T05:29:18;100460.72;;;3.77;100.00
65557;BME280;52200;53.490;14.376;2023-12-20T05:31:43;100469.09;;;3.85;100.00
65557;BME280;52200;53.490;14.376;2023-12-20T05:34:09;100465.72;;;3.97;100.00
65557;BME280;52200;53.490;14.376;2023-12-20T05:36:35;100467.34;;;4.03;100.00
65557;BME280;52200;53.490;14.376;2023-12-20T05:39:00;100464.81;;;4.04;100.00
65557;BME280;52200;53.490;14.376;2023-12-20T05:41:26;100459.72;;;4.17;100.00
65557;BME280;52200;53.490;14.376;2023-12-20T05:43:51;100450.47;;;4.27;100.00
65557;BME280;52200;53.490;14.376;2023-12-20T05:46:17;100442.00;;;4.42;100.00
65557;BME280;52200;53.490;14.376;2023-12-20T05:48:42;100433.66;;;4.38;100.00
65557;BME280;52200;53.490;14.376;2023-12-20T05:51:11;100433.72;;;4.24;100.00
65557;BME280;52200;53.490;14.376;2023-12-20T05:53:36;100434.59;;;4.20;100.00
65557;BME280;52200;53.490;14.376;2023-12-20T05:56:02;100437.97;;;4.13;100.00
65557;BME280;52200;53.490;14.376;2023-12-20T05:58:28;100439.69;;;4.08;100.00
65557;BME280;52200;53.490;14.376;2023-12-20T06:00:54;100434.53;;;4.32;100.00
65557;BME280;52200;53.490;14.376;2023-12-20T06:03:20;100412.09;;;3.92;100.00
65557;BME280;52200;53.490;14.376;2023-12-20T06:05:45;100418.66;;;4.24;100.00
65557;BME280;52200;53.490;14.376;2023-12-20T06:08:11;100412.72;;;4.36;100.00
65557;BME280;52200;53.490;14.376;2023-12-20T06:10:36;100406.81;;;4.43;100.00
65557;BME280;52200;53.490;14.376;2023-12-20T06:13:01;100407.69;;;4.33;100.00
65557;BME280;52200;53.490;14.376;2023-12-20T06:15:28;100405.94;;;4.50;99.89
65557;BME280;52200;53.490;14.376;2023-12-20T06:17:53;100405.19;;;4.36;100.00
65557;BME280;52200;53.490;14.376;2023-12-20T06:20:19;100403.47;;;4.44;100.00
65557;BME280;52200;53.490;14.376;2023-12-20T06:22:44;100400.09;;;4.47;100.00
65557;BME280;52200;53.490;14.376;2023-12-20T06:25:10;100400.09;;;4.39;100.00
65557;BME280;52200;53.490;14.376;2023-12-20T06:27:35;100394.22;;;4.42;100.00
65557;BME280;52200;53.490;14.376;2023-12-20T06:30:00;100393.38;;;4.43;100.00
65557;BME280;52200;53.490;14.376;2023-12-20T06:32:26;100391.69;;;4.46;100.00
65557;BME280;52200;53.490;14.376;2023-12-20T06:34:54;100389.91;;;4.58;99.95
65557;BME280;52200;53.490;14.376;2023-12-20T06:37:19;100388.22;;;4.63;99.53
65557;BME280;52200;53.490;14.376;2023-12-20T06:39:45;100385.78;;;4.52;99.41
65557;BME280;52200;53.490;14.376;2023-12-20T06:42:12;100391.03;;;4.19;100.00
65557;BME280;52200;53.490;14.376;2023-12-20T06:44:37;100387.69;;;4.17;100.00
65557;BME280;52200;53.490;14.376;2023-12-20T06:47:04;100383.47;;;4.26;100.00
65557;BME280;52200;53.490;14.376;2023-12-20T06:49:29;100375.78;;;4.41;100.00
65557;BME280;52200;53.490;14.376;2023-12-20T06:51:55;100372.34;;;4.51;100.00
65557;BME280;52200;53.490;14.376;2023-12-20T06:54:20;100368.13;;;4.58;100.00
65557;BME280;52200;53.490;14.376;2023-12-20T06:56:46;100359.91;;;4.33;100.00
65557;BME280;52200;53.490;14.376;2023-12-20T06:59:11;100361.47;;;4.48;100.00
65557;BME280;52200;53.490;14.376;2023-12-20T07:01:37;100361.47;;;4.52;100.00
65557;BME280;52200;53.490;14.376;2023-12-20T07:04:03;100364.16;;;4.31;100.00
65557;BME280;52200;53.490;14.376;2023-12-20T07:06:28;100359.06;;;4.34;100.00
65557;BME280;52200;53.490;14.376;2023-12-20T07:08:54;100355.72;;;4.38;100.00
65557;BME280;52200;53.490;14.376;2023-12-20T07:11:19;100362.25;;;4.61;100.00
65557;BME280;52200;53.490;14.376;2023-12-20T07:13:45;100353.84;;;4.63;100.00
65557;BME280;52200;53.490;14.376;2023-12-20T07:16:10;100351.50;;;4.40;100.00
65557;BME280;52200;53.490;14.376;2023-12-20T07:18:36;100343.84;;;4.52;100.00
65557;BME280;52200;53.490;14.376;2023-12-20T07:21:01;100347.97;;;4.64;100.00
65557;BME280;52200;53.490;14.376;2023-12-20T07:23:27;100348.03;;;4.57;100.00
65557;BME280;52200;53.490;14.376;2023-12-20T07:25:52;100348.81;;;4.60;100.00
65557;BME280;52200;53.490;14.376;2023-12-20T07:28:18;100348.03;;;4.54;100.00
65557;BME280;52200;53.490;14.376;2023-12-20T07:30:43;100343.78;;;4.60;100.00
65557;BME280;52200;53.490;14.376;2023-12-20T07:33:09;100347.22;;;4.53;100.00
65557;BME280;52200;53.490;14.376;2023-12-20T07:35:34;100347.13;;;4.65;100.00
65557;BME280;52200;53.490;14.376;2023-12-20T07:38:00;100344.72;;;4.48;100.00
65557;BME280;52200;53.490;14.376;2023-12-20T07:40:25;100347.97;;;4.63;100.00
65557;BME280;52200;53.490;14.376;2023-12-20T07:42:51;100342.03;;;4.68;100.00
65557;BME280;52200;53.490;14.376;2023-12-20T07:45:16;100339.59;;;4.61;100.00
65557;BME280;52200;53.490;14.376;2023-12-20T07:47:41;100346.25;;;4.65;100.00
65557;BME280;52200;53.490;14.376;2023-12-20T07:50:07;100346.31;;;4.62;100.00
65557;BME280;52200;53.490;14.376;2023-12-20T07:52:33;100336.19;;;4.68;100.00
65557;BME280;52200;53.490;14.376;2023-12-20T07:54:58;100338.66;;;4.73;100.00
65557;BME280;52200;53.490;14.376;2023-12-20T07:57:24;100337.91;;;4.63;100.00
65557;BME280;52200;53.490;14.376;2023-12-20T07:59:49;100332.97;;;4.52;100.00
65557;BME280;52200;53.490;14.376;2023-12-20T08:02:14;100328.59;;;4.73;100.00
65557;BME280;52200;53.490;14.376;2023-12-20T08:04:40;100331.09;;;4.74;100.00
65557;BME280;52200;53.490;14.376;2023-12-20T08:07:06;100331.91;;;4.78;100.00
65557;BME280;52200;53.490;14.376;2023-12-20T08:09:32;100332.09;;;4.55;100.00
65557;BME280;52200;53.490;14.376;2023-12-20T08:11:59;100326.84;;;4.81;100.00
65557;BME280;52200;53.490;14.376;2023-12-20T08:14:25;100329.38;;;4.76;100.00
65557;BME280;52200;53.490;14.376;2023-12-20T08:16:50;100332.03;;;4.62;100.00
65557;BME280;52200;53.490;14.376;2023-12-20T08:19:16;100326.97;;;4.67;100.00
65557;BME280;52200;53.490;14.376;2023-12-20T08:21:42;100327.84;;;4.63;100.00
65557;BME280;52200;53.490;14.376;2023-12-20T08:24:07;100329.38;;;4.79;100.00
65557;BME280;52200;53.490;14.376;2023-12-20T08:26:33;100330.13;;;4.86;100.00
65557;BME280;52200;53.490;14.376;2023-12-20T08:28:59;100330.16;;;4.88;100.00
65557;BME280;52200;53.490;14.376;2023-12-20T08:31:24;100330.94;;;4.90;100.00
65557;BME280;52200;53.490;14.376;2023-12-20T08:33:51;100322.56;;;4.91;100.00
65557;BME280;52200;53.490;14.376;2023-12-20T08:36:19;100316.72;;;4.86;100.00
65557;BME280;52200;53.490;14.376;2023-12-20T08:38:46;100320.13;;;4.81;100.00
65557;BME280;52200;53.490;14.376;2023-12-20T08:41:12;100311.75;;;4.79;100.00
65557;BME280;52200;53.490;14.376;2023-12-20T08:43:37;100313.31;;;4.93;100.00
65557;BME280;52200;53.490;14.376;2023-12-20T08:46:05;100314.25;;;4.81;100.00
65557;BME280;52200;53.490;14.376;2023-12-20T08:48:31;100305.84;;;4.83;100.00
65557;BME280;52200;53.490;14.376;2023-12-20T08:50:56;100296.53;;;4.92;100.00
65557;BME280;52200;53.490;14.376;2023-12-20T08:53:22;100293.28;;;4.82;100.00
65557;BME280;52200;53.490;14.376;2023-12-20T08:55:47;100294.88;;;4.91;100.00
65557;BME280;52200;53.490;14.376;2023-12-20T08:58:13;100288.88;;;5.01;100.00
65557;BME280;52200;53.490;14.376;2023-12-20T09:00:39;100302.34;;;5.00;100.00
65557;BME280;52200;53.490;14.376;2023-12-20T09:03:05;100303.31;;;4.83;100.00
65557;BME280;52200;53.490;14.376;2023-12-20T09:05:31;100305.81;;;4.87;100.00
65557;BME280;52200;53.490;14.376;2023-12-20T09:07:56;100306.72;;;4.79;100.00
65557;BME280;52200;53.490;14.376;2023-12-20T09:10:25;100312.53;;;4.88;100.00
65557;BME280;52200;53.490;14.376;2023-12-20T09:12:51;100305.66;;;5.02;100.00
65557;BME280;52200;53.490;14.376;2023-12-20T09:15:19;100306.59;;;4.92;100.00
65557;BME280;52200;53.490;14.376;2023-12-20T09:17:44;100310.81;;;4.90;100.00
65557;BME280;52200;53.490;14.376;2023-12-20T09:20:10;100307.34;;;5.02;100.00
65557;BME280;52200;53.490;14.376;2023-12-20T09:22:35;100304.81;;;5.03;100.00
65557;BME280;52200;53.490;14.376;2023-12-20T09:25:04;100293.19;;;4.90;100.00
65557;BME280;52200;53.490;14.376;2023-12-20T09:27:29;100298.94;;;5.04;100.00
65557;BME280;52200;53.490;14.376;2023-12-20T09:29:55;100293.78;;;5.12;100.00
65557;BME280;52200;53.490;14.376;2023-12-20T09:32:20;100282.84;;;5.16;99.76
65557;BME280;52200;53.490;14.376;2023-12-20T09:34:47;100283.72;;;5.15;99.17
65557;BME280;52200;53.490;14.376;2023-12-20T09:37:13;100275.50;;;4.99;99.53
65557;BME280;52200;53.490;14.376;2023-12-20T09:39:38;100274.50;;;5.11;100.00
65557;BME280;52200;53.490;14.376;2023-12-20T09:42:04;100273.63;;;5.16;100.00
65557;BME280;52200;53.490;14.376;2023-12-20T09:44:31;100268.59;;;5.13;99.71
65557;BME280;52200;53.490;14.376;2023-12-20T09:46:57;100268.66;;;5.09;100.00
65557;BME280;52200;53.490;14.376;2023-12-20T09:49:23;100265.16;;;5.21;100.00
65557;BME280;52200;53.490;14.376;2023-12-20T09:51:50;100267.69;;;5.19;99.70
65557;BME280;52200;53.490;14.376;2023-12-20T09:54:17;100258.31;;;5.33;99.27
65557;BME280;52200;53.490;14.376;2023-12-20T09:56:44;100248.34;;;5.23;98.59
65557;BME280;52200;53.490;14.376;2023-12-20T09:59:09;100243.22;;;5.30;99.81
65557;BME280;52200;53.490;14.376;2023-12-20T10:01:35;100248.13;;;5.41;99.70
65557;BME280;52200;53.490;14.376;2023-12-20T10:04:08;100252.16;;;5.53;98.34
65557;BME280;52200;53.490;14.376;2023-12-20T10:06:52;100245.25;;;5.66;97.94
65557;BME280;52200;53.490;14.376;2023-12-20T10:09:17;100244.66;;;5.48;98.21
65557;BME280;52200;53.490;14.376;2023-12-20T10:11:43;100234.44;;;5.58;97.75
65557;BME280;52200;53.490;14.376;2023-12-20T10:14:10;100222.69;;;5.60;98.37
65557;BME280;52200;53.490;14.376;2023-12-20T10:16:36;100226.00;;;5.62;97.46
65557;BME280;52200;53.490;14.376;2023-12-20T10:19:01;100222.50;;;5.72;96.95
65557;BME280;52200;53.490;14.376;2023-12-20T10:21:27;100205.81;;;5.63;97.24
65557;BME280;52200;53.490;14.376;2023-12-20T10:23:57;100211.00;;;5.53;96.75
65557;BME280;52200;53.490;14.376;2023-12-20T10:26:26;100191.03;;;5.40;96.66
65557;BME280;52200;53.490;14.376;2023-12-20T10:28:54;100198.53;;;5.45;96.65
65557;BME280;52200;53.490;14.376;2023-12-20T10:31:34;100185.81;;;5.53;97.84
65557;BME280;52200;53.490;14.376;2023-12-20T10:34:02;100196.03;;;5.43;97.13
65557;BME280;52200;53.490;14.376;2023-12-20T10:36:32;100192.72;;;5.41;97.57
65557;BME280;52200;53.490;14.376;2023-12-20T10:38:59;100188.66;;;5.31;97.35
65557;BME280;52200;53.490;14.376;2023-12-20T10:41:33;100177.63;;;5.38;96.74
65557;BME280;52200;53.490;14.376;2023-12-20T10:44:00;100172.50;;;5.44;96.32
65557;BME280;52200;53.490;14.376;2023-12-20T10:46:27;100155.69;;;5.46;96.58
65557;BME280;52200;53.490;14.376;2023-12-20T10:48:57;100152.03;;;5.66;96.24
65557;BME280;52200;53.490;14.376;2023-12-20T10:51:23;100153.69;;;5.67;94.81
65557;BME280;52200;53.490;14.376;2023-12-20T10:53:50;100151.25;;;5.62;94.58
65557;BME280;52200;53.490;14.376;2023-12-20T10:56:19;100154.91;;;5.99;93.78
65557;BME280;52200;53.490;14.376;2023-12-20T10:58:46;100143.31;;;5.86;93.61
65557;BME280;52200;53.490;14.376;2023-12-20T11:01:17;100142.59;;;5.77;94.29
65557;BME280;52200;53.490;14.376;2023-12-20T11:03:53;100133.38;;;5.76;92.94
65557;BME280;52200;53.490;14.376;2023-12-20T11:06:35;100138.59;;;5.67;93.20
65557;BME280;52200;53.490;14.376;2023-12-20T11:09:23;100131.06;;;5.65;93.76
65557;BME280;52200;53.490;14.376;2023-12-20T11:12:08;100126.84;;;5.66;94.03
65557;BME280;52200;53.490;14.376;2023-12-20T11:17:10;100104.19;;;6.15;93.21
65557;BME280;52200;53.490;14.376;2023-12-20T11:22:30;100101.03;;;6.03;92.57
65557;BME280;52200;53.490;14.376;2023-12-20T11:25:03;100092.09;;;5.84;93.17
65557;BME280;52200;53.490;14.376;2023-12-20T11:27:30;100087.06;;;5.84;93.57
65557;BME280;52200;53.490;14.376;2023-12-20T11:29:57;100074.56;;;5.77;95.42
65557;BME280;52200;53.490;14.376;2023-12-20T11:35:22;100062.78;;;5.79;95.39
65557;BME280;52200;53.490;14.376;2023-12-20T11:37:49;100052.69;;;5.79;95.27
65557;BME280;52200;53.490;14.376;2023-12-20T11:40:18;100049.88;;;5.95;95.13
65557;BME280;52200;53.490;14.376;2023-12-20T11:42:51;100034.81;;;5.92;95.14
65557;BME280;52200;53.490;14.376;2023-12-20T11:45:19;100034.78;;;5.93;95.05
65557;BME280;52200;53.490;14.376;2023-12-20T11:47:48;100026.53;;;5.85;95.81
65557;BME280;52200;53.490;14.376;2023-12-20T11:50:20;100015.34;;;6.00;95.41
65557;BME280;52200;53.490;14.376;2023-12-20T11:52:46;100005.97;;;6.08;93.69
65557;BME280;52200;53.490;14.376;2023-12-20T11:55:11;99998.81;;;5.85;94.66
65557;BME280;52200;53.490;14.376;2023-12-20T11:57:38;99995.41;;;5.88;93.72
65557;BME280;52200;53.490;14.376;2023-12-20T12:00:04;99997.91;;;5.88;94.31
65557;BME280;52200;53.490;14.376;2023-12-20T12:02:31;99988.50;;;5.99;93.53
65557;BME280;52200;53.490;14.376;2023-12-20T12:04:57;99981.44;;;6.17;93.33
65557;BME280;52200;53.490;14.376;2023-12-20T12:07:24;99971.50;;;6.07;92.89
65557;BME280;52200;53.490;14.376;2023-12-20T12:09:50;99971.34;;;5.71;94.16
65557;BME280;52200;53.490;14.376;2023-12-20T12:12:16;99964.41;;;5.82;95.04
65557;BME280;52200;53.490;14.376;2023-12-20T12:14:42;99963.69;;;5.77;95.16
65557;BME280;52200;53.490;14.376;2023-12-20T12:17:13;99956.97;;;5.78;94.50
65557;BME280;52200;53.490;14.376;2023-12-20T12:19:40;99949.53;;;5.70;94.97
65557;BME280;52200;53.490;14.376;2023-12-20T12:22:13;99941.28;;;5.63;94.54
65557;BME280;52200;53.490;14.376;2023-12-20T12:24:41;99947.09;;;5.67;95.34
65557;BME280;52200;53.490;14.376;2023-12-20T12:27:06;99935.16;;;5.75;94.98
65557;BME280;52200;53.490;14.376;2023-12-20T12:29:35;99939.50;;;5.69;95.68
65557;BME280;52200;53.490;14.376;2023-12-20T12:32:01;99932.13;;;5.58;97.35
65557;BME280;52200;53.490;14.376;2023-12-20T12:34:30;99927.88;;;5.61;97.47
65557;BME280;52200;53.490;14.376;2023-12-20T12:36:56;99934.09;;;5.42;96.47
65557;BME280;52200;53.490;14.376;2023-12-20T12:39:23;99925.78;;;5.38;96.90
65557;BME280;52200;53.490;14.376;2023-12-20T12:41:53;99933.41;;;5.35;97.65
65557;BME280;52200;53.490;14.376;2023-12-20T12:44:19;99935.84;;;5.38;97.42
65557;BME280;52200;53.490;14.376;2023-12-20T12:46:45;99925.88;;;5.33;97.54